Time;durP1;ratioP1;P1;durP2;ratioP2;P2;SDS_P1;SDS_P2;PMS_P1;PMS_P2;Temp;Humidity;BMP_temperature;BMP_pressure;BME280_temperature;BME280_humidity;BME280_pressure;Samples;Min_cycle;Max_cycle;Signal;HPM_P1;HPM_P2
2022/12/19 00:01:15;;;;;;;;;;;;;;;20.37;38.49;103179.92;101810;1339;61355;-82
2022/12/19 00:03:47;;;;;;;;;;;;;;;20.37;38.47;103179.94;101818;1335;61278;-82
2022/12/19 00:06:13;;;;;;;;;;;;;;;20.37;38.47;103185.30;101802;1333;75450;-82
2022/12/19 00:08:42;;;;;;;;;;;;;;;20.36;38.60;103177.63;101815;1335;61794;-82
2022/12/19 00:11:07;;;;;;;;;;;;;;;20.36;38.61;103184.25;101774;1339;61356;-82
2022/12/19 00:13:32;;;;;;;;;;;;;;;20.36;38.59;103185.33;101780;1335;61273;-83
2022/12/19 00:16:05;;;;;;;;;;;;;;;20.36;38.37;103187.47;101739;1339;61401;-82
2022/12/19 00:18:30;;;;;;;;;;;;;;;20.36;38.37;103190.69;101749;1334;61195;-82
2022/12/19 00:20:59;;;;;;;;;;;;;;;20.36;38.53;103190.15;101773;1335;61457;-81
2022/12/19 00:23:25;;;;;;;;;;;;;;;20.36;38.45;103195.71;101742;1335;73702;-82
2022/12/19 00:25:52;;;;;;;;;;;;;;;20.36;38.49;103200.17;101924;1330;61328;-83
2022/12/19 00:28:18;;;;;;;;;;;;;;;20.35;38.43;103202.34;102113;1327;61328;-83
2022/12/19 00:30:44;;;;;;;;;;;;;;;20.36;38.45;103208.59;102041;1323;61294;-82
2022/12/19 00:33:09;;;;;;;;;;;;;;;20.35;38.31;103210.58;102089;1325;61442;-82
2022/12/19 00:35:34;;;;;;;;;;;;;;;20.35;38.31;103208.98;102137;1318;60733;-82
2022/12/19 00:38:00;;;;;;;;;;;;;;;20.35;38.36;103206.13;102146;1326;61309;-81
2022/12/19 00:40:25;;;;;;;;;;;;;;;20.34;38.44;103211.13;102099;1326;61325;-81
2022/12/19 00:42:50;;;;;;;;;;;;;;;20.35;38.32;103210.77;102061;1326;61374;-82
2022/12/19 00:45:16;;;;;;;;;;;;;;;20.35;38.30;103213.98;102117;1326;61270;-83
2022/12/19 00:47:41;;;;;;;;;;;;;;;20.34;38.14;103215.61;102006;1329;61404;-82
2022/12/19 00:50:09;;;;;;;;;;;;;;;20.34;38.24;103221.52;102152;1326;61408;-82
2022/12/19 00:52:35;;;;;;;;;;;;;;;20.34;38.43;103219.73;102019;1326;61489;-81
2022/12/19 00:55:00;;;;;;;;;;;;;;;20.33;38.29;103229.23;102115;1326;61360;-82
2022/12/19 00:57:25;;;;;;;;;;;;;;;20.34;38.26;103234.40;102032;1329;61322;-82
2022/12/19 00:59:51;;;;;;;;;;;;;;;20.33;38.21;103233.69;102054;1328;61440;-82
2022/12/19 01:02:16;;;;;;;;;;;;;;;20.33;38.36;103238.17;102129;1327;61314;-82
2022/12/19 01:04:42;;;;;;;;;;;;;;;20.33;38.17;103238.35;102116;1324;61218;-82
2022/12/19 01:07:07;;;;;;;;;;;;;;;20.33;38.35;103236.74;102051;1333;61281;-81
2022/12/19 01:09:33;;;;;;;;;;;;;;;20.33;38.08;103235.15;102136;1330;61435;-82
2022/12/19 01:14:43;;;;;;;;;;;;;;;20.32;38.12;103234.45;102110;1326;61309;-82
2022/12/19 01:17:08;;;;;;;;;;;;;;;20.32;38.06;103238.91;102070;1327;61348;-82
2022/12/19 01:19:34;;;;;;;;;;;;;;;20.32;38.14;103239.27;102006;1325;61402;-82
2022/12/19 01:21:59;;;;;;;;;;;;;;;20.32;38.16;103236.60;102067;1330;61393;-81
2022/12/19 01:24:25;;;;;;;;;;;;;;;20.32;38.13;103230.35;102106;1326;61363;-81
2022/12/19 01:26:50;;;;;;;;;;;;;;;20.32;38.12;103238.73;102130;1326;61443;-82
2022/12/19 01:29:15;;;;;;;;;;;;;;;20.32;38.05;103240.71;102089;1326;61764;-82
2022/12/19 01:31:41;;;;;;;;;;;;;;;20.32;38.07;103240.00;102103;1326;61315;-82
2022/12/19 01:34:06;;;;;;;;;;;;;;;20.32;38.07;103242.31;102105;1323;61284;-82
2022/12/19 01:36:33;;;;;;;;;;;;;;;20.32;38.09;103241.80;102057;1326;75564;-82
2022/12/19 01:38:59;;;;;;;;;;;;;;;20.31;38.02;103244.30;102087;1330;61167;-82
2022/12/19 01:41:24;;;;;;;;;;;;;;;20.31;38.20;103240.91;102088;1326;61316;-82
2022/12/19 01:44:00;;;;;;;;;;;;;;;20.31;38.12;103247.89;102057;1326;61308;-82
2022/12/19 01:46:31;;;;;;;;;;;;;;;20.30;38.11;103248.45;102103;1330;74663;-82
2022/12/19 01:48:56;;;;;;;;;;;;;;;20.30;38.13;103249.52;102100;1326;61227;-82
2022/12/19 01:51:22;;;;;;;;;;;;;;;20.30;38.03;103254.19;102095;1326;61425;-81
2022/12/19 01:53:49;;;;;;;;;;;;;;;20.30;37.97;103258.49;102042;1326;61423;-81
2022/12/19 01:56:16;;;;;;;;;;;;;;;20.30;38.05;103264.02;102101;1326;61498;-82
2022/12/19 01:58:42;;;;;;;;;;;;;;;20.30;38.02;103262.95;102131;1326;61237;-82
2022/12/19 02:01:07;;;;;;;;;;;;;;;20.30;38.01;103259.19;102104;1331;61469;-82
2022/12/19 02:03:33;;;;;;;;;;;;;;;20.30;38.09;103260.27;102062;1327;61326;-83
2022/12/19 02:05:59;;;;;;;;;;;;;;;20.29;37.81;103253.31;102097;1327;61314;-82
2022/12/19 02:08:24;;;;;;;;;;;;;;;20.29;37.94;103253.48;102114;1326;61522;-82
2022/12/19 02:10:49;;;;;;;;;;;;;;;20.30;37.91;103257.78;102073;1326;61229;-82
2022/12/19 02:13:15;;;;;;;;;;;;;;;20.29;37.84;103258.32;102107;1326;62518;-82
2022/12/19 02:15:49;;;;;;;;;;;;;;;20.29;37.98;103259.20;102042;1328;61419;-83
2022/12/19 02:18:27;;;;;;;;;;;;;;;20.29;37.84;103256.71;102065;1330;74596;-83
2022/12/19 02:21:02;;;;;;;;;;;;;;;20.29;37.83;103260.84;102148;1330;63018;-82
2022/12/19 02:23:27;;;;;;;;;;;;;;;20.28;37.85;103264.77;102106;1326;61184;-82
2022/12/19 02:26:11;;;;;;;;;;;;;;;20.28;37.83;103267.64;102083;1330;61314;-82
2022/12/19 02:28:40;;;;;;;;;;;;;;;20.29;37.84;103270.15;102096;1326;74652;-82
2022/12/19 02:31:14;;;;;;;;;;;;;;;20.29;37.72;103271.58;102115;1325;61162;-82
2022/12/19 02:33:53;;;;;;;;;;;;;;;20.28;37.88;103265.52;102055;1327;61245;-82
2022/12/19 02:36:20;;;;;;;;;;;;;;;20.28;37.77;103267.48;101968;1329;72570;-81
2022/12/19 02:38:55;;;;;;;;;;;;;;;20.28;37.83;103263.17;102068;1329;73893;-81
2022/12/19 02:41:20;;;;;;;;;;;;;;;20.28;37.77;103266.59;102133;1326;61276;-81
2022/12/19 02:43:46;;;;;;;;;;;;;;;20.28;37.78;103266.05;102124;1326;61408;-82
2022/12/19 02:46:11;;;;;;;;;;;;;;;20.27;37.89;103266.96;102052;1329;61337;-82
2022/12/19 02:48:37;;;;;;;;;;;;;;;20.27;37.67;103266.23;102020;1329;61746;-82
2022/12/19 02:51:02;;;;;;;;;;;;;;;20.26;37.80;103259.27;102129;1326;61469;-82
2022/12/19 02:53:28;;;;;;;;;;;;;;;20.27;37.76;103258.02;102114;1326;61370;-82
2022/12/19 02:56:05;;;;;;;;;;;;;;;20.27;37.70;103258.02;102104;1326;61347;-82
2022/12/19 02:58:48;;;;;;;;;;;;;;;20.26;37.66;103263.20;102104;1326;73597;-82
2022/12/19 03:01:14;;;;;;;;;;;;;;;20.26;37.62;103260.55;102151;1323;74428;-82
2022/12/19 03:03:39;;;;;;;;;;;;;;;20.26;37.71;103264.48;102082;1327;61328;-81
2022/12/19 03:06:24;;;;;;;;;;;;;;;20.26;37.73;103263.22;102117;1326;61308;-82
2022/12/19 03:09:00;;;;;;;;;;;;;;;20.25;37.74;103260.75;102126;1325;73456;-81
2022/12/19 03:11:26;;;;;;;;;;;;;;;20.25;37.68;103266.11;102119;1326;75495;-82
2022/12/19 03:13:59;;;;;;;;;;;;;;;20.25;37.76;103265.94;102051;1333;61288;-82
2022/12/19 03:16:25;;;;;;;;;;;;;;;20.25;37.55;103269.70;102011;1329;61482;-83
2022/12/19 03:18:53;;;;;;;;;;;;;;;20.25;37.50;103275.06;102039;1327;61321;-81
2022/12/19 03:21:30;;;;;;;;;;;;;;;20.24;37.66;103276.86;102024;1329;74569;-81
2022/12/19 03:23:56;;;;;;;;;;;;;;;20.24;37.70;103282.77;102033;1329;61494;-82
2022/12/19 03:26:22;;;;;;;;;;;;;;;20.25;37.58;103280.08;102108;1326;61404;-82
2022/12/19 03:29:07;;;;;;;;;;;;;;;20.24;37.60;103282.77;102110;1326;61308;-82
2022/12/19 03:31:32;;;;;;;;;;;;;;;20.24;37.57;103284.20;102051;1330;74460;-81
2022/12/19 03:34:02;;;;;;;;;;;;;;;20.23;37.45;103287.62;102159;1326;61273;-83
2022/12/19 03:36:29;;;;;;;;;;;;;;;20.23;37.54;103283.51;102078;1334;61439;-80
2022/12/19 03:38:54;;;;;;;;;;;;;;;20.24;37.53;103285.99;102144;1320;73763;-80
2022/12/19 03:43:07;;;;;;;;;;;;;;;20.24;37.50;103286.00;102151;1326;61373;-81
2022/12/19 03:44:05;;;;;;;;;;;;;;;20.24;37.60;103289.39;102167;1330;61277;-81
2022/12/19 03:46:31;;;;;;;;;;;;;;;20.25;37.49;103289.55;102161;1328;61388;-80
2022/12/19 03:48:56;;;;;;;;;;;;;;;20.25;37.65;103293.84;102166;1330;61152;-81
2022/12/19 03:51:51;;;;;;;;;;;;;;;20.25;37.44;103293.84;102056;1333;61330;-81
2022/12/19 03:54:20;;;;;;;;;;;;;;;20.25;37.55;103300.44;101821;1338;61224;-81
2022/12/19 03:56:53;;;;;;;;;;;;;;;20.26;37.55;103306.88;101888;1339;61535;-81
2022/12/19 03:59:21;;;;;;;;;;;;;;;20.26;37.50;103314.36;101890;1332;73516;-81
2022/12/19 04:01:46;;;;;;;;;;;;;;;20.26;37.46;103316.85;101813;1333;75624;-81
2022/12/19 04:04:13;;;;;;;;;;;;;;;20.27;37.60;103316.48;101801;1340;61338;-81
2022/12/19 04:06:39;;;;;;;;;;;;;;;20.27;37.54;103314.34;101864;1333;61309;-81
2022/12/19 04:09:04;;;;;;;;;;;;;;;20.27;37.57;103320.23;101817;1335;61330;-81
2022/12/19 04:11:33;;;;;;;;;;;;;;;20.27;37.52;103324.54;101780;1335;61363;-81
2022/12/19 04:14:03;;;;;;;;;;;;;;;20.28;37.40;103322.91;101797;1333;61324;-80
2022/12/19 04:16:28;;;;;;;;;;;;;;;20.28;37.63;103328.46;101817;1338;61316;-80
2022/12/19 04:19:23;;;;;;;;;;;;;;;20.28;37.47;103334.17;101833;1336;61470;-81
2022/12/19 04:21:52;;;;;;;;;;;;;;;20.28;37.51;103335.60;101770;1339;75855;-81
2022/12/19 04:24:18;;;;;;;;;;;;;;;20.28;37.40;103339.55;101738;1335;61270;-80
2022/12/19 04:26:44;;;;;;;;;;;;;;;20.28;37.34;103345.27;101824;1338;61321;-81
2022/12/19 04:29:10;;;;;;;;;;;;;;;20.27;37.26;103346.16;101817;1333;61465;-81
2022/12/19 04:31:35;;;;;;;;;;;;;;;20.27;37.39;103345.11;102067;1319;61518;-81
2022/12/19 04:34:01;;;;;;;;;;;;;;;20.28;37.46;103350.29;102132;1326;61363;-81
2022/12/19 04:36:26;;;;;;;;;;;;;;;20.27;37.41;103354.22;102210;1326;61292;-81
2022/12/19 04:38:52;;;;;;;;;;;;;;;20.26;37.28;103360.31;102153;1326;61221;-81
2022/12/19 04:41:17;;;;;;;;;;;;;;;20.26;37.24;103364.06;102167;1326;61333;-81
2022/12/19 04:43:42;;;;;;;;;;;;;;;20.26;37.22;103369.61;102151;1326;61767;-81
2022/12/19 04:46:08;;;;;;;;;;;;;;;20.26;37.25;103367.99;102172;1330;61339;-81
2022/12/19 04:48:34;;;;;;;;;;;;;;;20.26;37.28;103367.48;102112;1327;59971;-81
2022/12/19 04:50:59;;;;;;;;;;;;;;;20.26;37.27;103375.34;102094;1314;61189;-81
2022/12/19 04:53:25;;;;;;;;;;;;;;;20.26;37.00;103373.39;102074;1333;61402;-81
2022/12/19 04:55:50;;;;;;;;;;;;;;;20.24;37.19;103377.01;102132;1330;61341;-81
2022/12/19 04:58:16;;;;;;;;;;;;;;;20.24;37.18;103381.85;102154;1326;61388;-82
2022/12/19 05:00:42;;;;;;;;;;;;;;;20.22;37.08;103383.69;102122;1326;61318;-82
2022/12/19 05:03:07;;;;;;;;;;;;;;;20.21;36.86;103382.83;102138;1326;61994;-82
2022/12/19 05:05:35;;;;;;;;;;;;;;;20.20;36.88;103378.01;102037;1335;61452;-81
2022/12/19 05:08:00;;;;;;;;;;;;;;;20.20;37.01;103384.98;102142;1326;75332;-81
2022/12/19 05:10:26;;;;;;;;;;;;;;;20.22;36.78;103385.31;102083;1330;61416;-81
2022/12/19 05:12:52;;;;;;;;;;;;;;;20.24;36.89;103394.89;102077;1326;61334;-81
2022/12/19 05:15:18;;;;;;;;;;;;;;;20.27;36.71;103396.08;102169;1327;61257;-81
2022/12/19 05:17:43;;;;;;;;;;;;;;;20.31;36.95;103399.02;102122;1326;61330;-81
2022/12/19 05:20:09;;;;;;;;;;;;;;;20.34;36.82;103404.27;102164;1326;61349;-82
2022/12/19 05:22:35;;;;;;;;;;;;;;;20.38;36.79;103412.05;102145;1326;61438;-81
2022/12/19 05:25:00;;;;;;;;;;;;;;;20.41;36.51;103412.67;102059;1326;61341;-82
2022/12/19 05:27:25;;;;;;;;;;;;;;;20.45;36.59;103414.02;102168;1332;61299;-81
2022/12/19 05:29:52;;;;;;;;;;;;;;;20.47;36.48;103414.13;102188;1333;61793;-81
2022/12/19 05:32:17;;;;;;;;;;;;;;;20.49;36.46;103416.75;102143;1313;61325;-81
2022/12/19 05:34:43;;;;;;;;;;;;;;;20.51;36.39;103419.20;102312;1316;60586;-81
2022/12/19 05:37:08;;;;;;;;;;;;;;;20.53;36.27;103423.80;102303;1319;61200;-81
2022/12/19 05:39:33;;;;;;;;;;;;;;;20.52;36.23;103426.35;102210;1317;60115;-81
2022/12/19 05:41:59;;;;;;;;;;;;;;;20.48;36.11;103419.31;102177;1320;61421;-81
2022/12/19 05:44:26;;;;;;;;;;;;;;;20.41;36.02;103421.98;102265;1313;61317;-81
2022/12/19 05:46:52;;;;;;;;;;;;;;;20.35;35.95;103434.11;102251;1314;60119;-82
2022/12/19 05:49:17;;;;;;;;;;;;;;;20.29;35.58;103435.89;102259;1317;61315;-82
2022/12/19 05:51:43;;;;;;;;;;;;;;;20.23;35.26;103431.77;102203;1320;61404;-81
2022/12/19 05:54:08;;;;;;;;;;;;;;;20.16;35.10;103434.27;102212;1318;60928;-83
2022/12/19 05:56:33;;;;;;;;;;;;;;;20.09;34.80;103438.73;102161;1320;61267;-82
2022/12/19 05:58:59;;;;;;;;;;;;;;;20.02;34.72;103445.34;102157;1317;61298;-82
2022/12/19 06:01:25;;;;;;;;;;;;;;;19.95;34.63;103447.13;102233;1321;61285;-83
2022/12/19 06:03:51;;;;;;;;;;;;;;;19.88;34.52;103450.85;102260;1317;59596;-82
2022/12/19 06:06:17;;;;;;;;;;;;;;;19.84;34.39;103454.38;102303;1318;59532;-83
2022/12/19 06:08:43;;;;;;;;;;;;;;;19.81;34.42;103455.69;102280;1310;61229;-81
2022/12/19 06:11:08;;;;;;;;;;;;;;;19.78;34.41;103456.80;102302;1318;59835;-82
2022/12/19 06:13:34;;;;;;;;;;;;;;;19.76;34.31;103463.09;102256;1317;61273;-83
2022/12/19 06:16:12;;;;;;;;;;;;;;;19.75;34.05;103466.52;102147;1318;60975;-82
2022/12/19 06:18:38;;;;;;;;;;;;;;;19.72;33.92;103471.95;102245;1310;74871;-83
2022/12/19 06:21:04;;;;;;;;;;;;;;;19.69;34.07;103472.73;102222;1317;61254;-82
2022/12/19 06:23:30;;;;;;;;;;;;;;;19.67;33.87;103469.58;102202;1310;61399;-82
2022/12/19 06:25:56;;;;;;;;;;;;;;;19.66;33.94;103473.86;102238;1310;62625;-83
2022/12/19 06:28:22;;;;;;;;;;;;;;;19.69;33.80;103474.34;102286;1317;60348;-82
2022/12/19 06:30:47;;;;;;;;;;;;;;;19.74;33.82;103478.52;102262;1318;61337;-82
2022/12/19 06:33:13;;;;;;;;;;;;;;;19.79;33.77;103484.30;102306;1317;59563;-82
2022/12/19 06:35:38;;;;;;;;;;;;;;;19.83;33.77;103488.87;102337;1316;61144;-83
2022/12/19 06:38:04;;;;;;;;;;;;;;;19.85;33.67;103487.58;102214;1310;61308;-82
2022/12/19 06:43:14;;;;;;;;;;;;;;;19.93;33.77;103490.08;102262;1317;61027;-81
2022/12/19 06:45:39;;;;;;;;;;;;;;;19.98;33.65;103493.73;102225;1319;61461;-81
2022/12/19 06:48:04;;;;;;;;;;;;;;;20.03;33.81;103496.08;102219;1316;59312;-81
2022/12/19 06:50:30;;;;;;;;;;;;;;;20.09;33.95;103502.02;102267;1310;61408;-82
2022/12/19 06:52:55;;;;;;;;;;;;;;;20.15;33.74;103506.16;102260;1314;61198;-82
2022/12/19 06:55:21;;;;;;;;;;;;;;;20.18;33.85;103496.79;102327;1317;61477;-82
2022/12/19 06:57:46;;;;;;;;;;;;;;;20.20;33.79;103505.15;102282;1316;60616;-81
2022/12/19 07:00:12;;;;;;;;;;;;;;;20.23;33.96;103512.76;102247;1317;60527;-81
2022/12/19 07:02:37;;;;;;;;;;;;;;;20.28;34.03;103519.27;102313;1323;60858;-81
2022/12/19 07:05:04;;;;;;;;;;;;;;;20.32;34.07;103521.49;102360;1318;60782;-81
2022/12/19 07:07:29;;;;;;;;;;;;;;;20.36;34.16;103526.59;102246;1317;61270;-82
2022/12/19 07:09:55;;;;;;;;;;;;;;;20.40;34.46;103530.23;102339;1323;59807;-81
2022/12/19 07:12:20;;;;;;;;;;;;;;;20.46;34.32;103537.23;102269;1317;62430;-81
2022/12/19 07:14:50;;;;;;;;;;;;;;;20.50;34.28;103544.46;102286;1317;74582;-81
2022/12/19 07:17:15;;;;;;;;;;;;;;;20.55;34.39;103547.02;102318;1317;61291;-81
2022/12/19 07:19:41;;;;;;;;;;;;;;;20.58;34.47;103548.02;102311;1318;59741;-81
2022/12/19 07:22:06;;;;;;;;;;;;;;;20.60;34.60;103552.61;102297;1311;59546;-82
2022/12/19 07:24:33;;;;;;;;;;;;;;;20.63;34.51;103557.93;102249;1319;59927;-83
2022/12/19 07:26:58;;;;;;;;;;;;;;;20.65;34.75;103554.64;102307;1318;61197;-81
2022/12/19 07:29:24;;;;;;;;;;;;;;;20.67;34.78;103553.33;102311;1311;59803;-81
2022/12/19 07:31:49;;;;;;;;;;;;;;;20.67;34.93;103558.35;102292;1317;61283;-81
2022/12/19 07:34:15;;;;;;;;;;;;;;;20.67;35.05;103558.33;102184;1317;61490;-81
2022/12/19 07:36:40;;;;;;;;;;;;;;;20.68;35.04;103564.07;102293;1317;61180;-82
2022/12/19 07:39:06;;;;;;;;;;;;;;;20.68;35.17;103571.39;102248;1317;60038;-82
2022/12/19 07:41:34;;;;;;;;;;;;;;;20.68;35.27;103568.89;102352;1317;59906;-82
2022/12/19 07:44:00;;;;;;;;;;;;;;;20.68;35.30;103565.84;102199;1317;61374;-81
2022/12/19 07:46:26;;;;;;;;;;;;;;;20.68;35.32;103567.45;102312;1316;61983;-81
2022/12/19 07:48:52;;;;;;;;;;;;;;;20.67;35.48;103568.90;102323;1313;61210;-81
2022/12/19 07:51:17;;;;;;;;;;;;;;;20.66;35.52;103563.00;102312;1310;61227;-81
2022/12/19 07:53:43;;;;;;;;;;;;;;;20.65;35.66;103566.98;102281;1317;61347;-83
2022/12/19 07:56:08;;;;;;;;;;;;;;;20.55;35.62;103571.54;102296;1318;59249;-81
2022/12/19 07:58:35;;;;;;;;;;;;;;;20.41;35.52;103572.23;102293;1316;73470;-82
2022/12/19 08:01:00;;;;;;;;;;;;;;;20.35;35.68;103574.00;102276;1316;61644;-81
2022/12/19 08:03:27;;;;;;;;;;;;;;;20.29;35.71;103570.02;102251;1318;60731;-83
2022/12/19 08:05:59;;;;;;;;;;;;;;;20.22;35.66;103568.58;102360;1318;61271;-82
2022/12/19 08:08:25;;;;;;;;;;;;;;;20.19;35.66;103574.93;102387;1317;72794;-82
2022/12/19 08:10:51;;;;;;;;;;;;;;;20.19;35.49;103576.54;102339;1316;61218;-82
2022/12/19 08:13:16;;;;;;;;;;;;;;;20.19;35.53;103579.56;102331;1318;59114;-81
2022/12/19 08:15:41;;;;;;;;;;;;;;;20.19;35.44;103580.65;102329;1313;61586;-81
2022/12/19 08:18:08;;;;;;;;;;;;;;;20.19;35.60;103579.21;101590;1318;941682;-82
2022/12/19 08:20:33;;;;;;;;;;;;;;;20.20;35.65;103582.59;102348;1310;61296;-82
2022/12/19 08:22:59;;;;;;;;;;;;;;;20.21;35.52;103586.85;102302;1326;60382;-81
2022/12/19 08:25:24;;;;;;;;;;;;;;;20.24;35.71;103592.50;102257;1317;61395;-82
2022/12/19 08:27:50;;;;;;;;;;;;;;;20.26;35.73;103584.59;102296;1318;60467;-82
2022/12/19 08:30:15;;;;;;;;;;;;;;;20.28;35.68;103580.59;102339;1310;61378;-82
2022/12/19 08:32:41;;;;;;;;;;;;;;;20.29;35.76;103584.32;102321;1317;60732;-82
2022/12/19 08:35:06;;;;;;;;;;;;;;;20.31;35.57;103587.33;102298;1316;61469;-82
2022/12/19 08:37:33;;;;;;;;;;;;;;;20.33;35.68;103586.02;102194;1318;61357;-81
2022/12/19 08:39:58;;;;;;;;;;;;;;;20.33;35.73;103586.38;102223;1310;61285;-82
2022/12/19 08:42:24;;;;;;;;;;;;;;;20.33;35.61;103584.95;102215;1316;61083;-81
2022/12/19 08:44:49;;;;;;;;;;;;;;;20.34;35.68;103582.25;102205;1318;61456;-81
2022/12/19 08:47:15;;;;;;;;;;;;;;;20.35;35.74;103582.23;102295;1324;61311;-81
2022/12/19 08:49:40;;;;;;;;;;;;;;;20.35;35.90;103589.36;102307;1318;61346;-81
2022/12/19 08:52:05;;;;;;;;;;;;;;;20.37;35.99;103588.98;102274;1324;61319;-81
2022/12/19 08:54:31;;;;;;;;;;;;;;;20.38;36.10;103592.33;102316;1317;61770;-81
2022/12/19 08:56:56;;;;;;;;;;;;;;;20.39;36.13;103584.27;102310;1316;60607;-81
2022/12/19 08:59:22;;;;;;;;;;;;;;;20.43;36.18;103583.63;102325;1316;62695;-82
2022/12/19 09:01:47;;;;;;;;;;;;;;;20.46;36.26;103582.13;102279;1317;59490;-82
2022/12/19 09:04:13;;;;;;;;;;;;;;;20.48;36.44;103582.08;102420;1317;59997;-83
2022/12/19 09:06:39;;;;;;;;;;;;;;;20.44;36.40;103571.46;102324;1324;59836;-83
2022/12/19 09:09:04;;;;;;;;;;;;;;;20.43;36.36;103567.55;102354;1310;60556;-82
2022/12/19 09:11:30;;;;;;;;;;;;;;;20.44;36.49;103568.23;102403;1323;61131;-82
2022/12/19 09:13:56;;;;;;;;;;;;;;;20.44;36.37;103568.23;102326;1320;61420;-82
2022/12/19 09:16:21;;;;;;;;;;;;;;;20.45;36.34;103567.14;102260;1327;60999;-82
2022/12/19 09:18:47;;;;;;;;;;;;;;;20.45;36.20;103570.89;102356;1317;61333;-82
2022/12/19 09:21:24;;;;;;;;;;;;;;;20.43;35.94;103563.05;102176;1324;59840;-82
2022/12/19 09:23:51;;;;;;;;;;;;;;;20.44;35.92;103562.86;102332;1316;61026;-81
2022/12/19 09:26:17;;;;;;;;;;;;;;;20.45;35.91;103561.95;102321;1317;61240;-81
2022/12/19 09:28:44;;;;;;;;;;;;;;;20.46;35.94;103561.91;102317;1318;61299;-81
2022/12/19 09:31:10;;;;;;;;;;;;;;;20.48;36.03;103559.71;102298;1317;61251;-82
2022/12/19 09:33:38;;;;;;;;;;;;;;;20.51;35.90;103553.94;102291;1318;61212;-82
2022/12/19 09:36:03;;;;;;;;;;;;;;;20.53;36.01;103552.60;102282;1324;61377;-82
2022/12/19 09:38:31;;;;;;;;;;;;;;;20.55;35.97;103553.64;102277;1317;62249;-81
2022/12/19 09:40:56;;;;;;;;;;;;;;;20.57;35.96;103551.45;102306;1316;61238;-80
2022/12/19 09:43:40;;;;;;;;;;;;;;;20.59;35.93;103547.80;102257;1316;61481;-81
2022/12/19 09:46:12;;;;;;;;;;;;;;;20.58;35.99;103551.23;102322;1314;60177;-81
2022/12/19 09:48:41;;;;;;;;;;;;;;;20.58;35.95;103552.11;102238;1316;72364;-82
2022/12/19 09:51:12;;;;;;;;;;;;;;;20.59;36.00;103545.31;102316;1318;75367;-82
2022/12/19 09:53:41;;;;;;;;;;;;;;;20.61;36.37;103546.86;102269;1316;61257;-82
2022/12/19 09:56:09;;;;;;;;;;;;;;;20.64;36.60;103542.14;102353;1316;60437;-82
2022/12/19 09:58:38;;;;;;;;;;;;;;;20.65;36.86;103540.32;102311;1316;72664;-80
2022/12/19 10:01:06;;;;;;;;;;;;;;;20.63;36.92;103537.14;102309;1310;75556;-82
2022/12/19 10:03:33;;;;;;;;;;;;;;;20.59;36.89;103532.61;102359;1324;61487;-83
2022/12/19 10:06:05;;;;;;;;;;;;;;;20.43;36.77;103526.55;102222;1318;60539;-84
2022/12/19 10:08:32;;;;;;;;;;;;;;;20.30;36.72;103524.41;102307;1318;72481;-84
2022/12/19 10:11:04;;;;;;;;;;;;;;;20.18;36.69;103526.65;102334;1317;59600;-80
2022/12/19 10:13:33;;;;;;;;;;;;;;;20.00;36.47;103522.27;102345;1319;61377;-81
2022/12/19 10:16:08;;;;;;;;;;;;;;;19.93;36.38;103516.88;102325;1323;60244;-81
2022/12/19 10:18:51;;;;;;;;;;;;;;;19.93;36.31;103518.67;102960;1326;73654;-81
2022/12/19 10:21:20;;;;;;;;;;;;;;;19.96;36.03;103522.17;102969;1332;74454;-81
2022/12/19 10:24:14;;;;;;;;;;;;;;;20.00;36.05;103518.35;102974;1326;61030;-81
2022/12/19 10:26:53;;;;;;;;;;;;;;;20.05;35.98;103521.25;102383;1324;59791;-81
2022/12/19 10:29:22;;;;;;;;;;;;;;;20.09;35.75;103520.42;102261;1331;72842;-80
2022/12/19 10:31:54;;;;;;;;;;;;;;;20.15;35.71;103518.52;102322;1316;74594;-81
2022/12/19 10:34:24;;;;;;;;;;;;;;;20.17;35.57;103516.13;102282;1321;61302;-82
2022/12/19 10:36:50;;;;;;;;;;;;;;;20.21;35.53;103518.55;102299;1317;61495;-82
2022/12/19 10:39:25;;;;;;;;;;;;;;;20.24;35.51;103519.17;102429;1324;61291;-82
2022/12/19 10:41:51;;;;;;;;;;;;;;;20.26;35.37;103516.80;102749;1319;75584;-82
2022/12/19 10:44:17;;;;;;;;;;;;;;;20.30;35.49;103515.28;102379;1334;62222;-82
2022/12/19 10:46:46;;;;;;;;;;;;;;;20.34;35.40;103511.24;102323;1310;59625;-82
2022/12/19 10:49:18;;;;;;;;;;;;;;;20.36;35.31;103514.39;102299;1334;72549;-82
2022/12/19 10:52:04;;;;;;;;;;;;;;;20.38;35.13;103509.52;102274;1317;75603;-83
2022/12/19 10:54:38;;;;;;;;;;;;;;;20.38;35.08;103509.70;102149;1321;61270;-83
2022/12/19 10:57:23;;;;;;;;;;;;;;;20.36;34.98;103506.91;102230;1318;60237;-82
2022/12/19 10:59:58;;;;;;;;;;;;;;;20.32;34.75;103511.30;102288;1318;72502;-83
2022/12/19 11:02:36;;;;;;;;;;;;;;;20.28;34.64;103505.48;102238;1310;75695;-83
2022/12/19 11:05:02;;;;;;;;;;;;;;;20.18;34.50;103505.20;102392;1310;61309;-82
2022/12/19 11:07:28;;;;;;;;;;;;;;;20.06;34.37;103503.18;102453;1317;60605;-83
2022/12/19 11:09:53;;;;;;;;;;;;;;;19.96;34.43;103503.41;102242;1320;61217;-83
2022/12/19 11:12:18;;;;;;;;;;;;;;;19.86;34.47;103499.55;102469;1326;61365;-82
2022/12/19 11:14:51;;;;;;;;;;;;;;;19.71;34.15;103499.65;102406;1318;59829;-83
2022/12/19 11:17:25;;;;;;;;;;;;;;;19.64;34.23;103498.39;102333;1318;61194;-83
2022/12/19 11:19:51;;;;;;;;;;;;;;;19.64;34.30;103487.33;102330;1317;61227;-82
2022/12/19 11:22:23;;;;;;;;;;;;;;;19.68;34.22;103486.52;102316;1318;60477;-82
2022/12/19 11:24:49;;;;;;;;;;;;;;;19.72;34.17;103489.46;102293;1317;74503;-82
2022/12/19 11:27:35;;;;;;;;;;;;;;;19.76;33.85;103490.26;102308;1318;61339;-83
2022/12/19 11:30:01;;;;;;;;;;;;;;;19.81;33.92;103488.76;102310;1317;61508;-82
2022/12/19 11:32:31;;;;;;;;;;;;;;;19.84;33.77;103486.70;102287;1317;72916;-82
2022/12/19 11:35:04;;;;;;;;;;;;;;;19.89;33.79;103486.41;102462;1317;73449;-81
2022/12/19 11:37:35;;;;;;;;;;;;;;;19.92;33.93;103486.17;102241;1323;61320;-82
2022/12/19 11:40:05;;;;;;;;;;;;;;;19.95;33.86;103486.64;102304;1316;61403;-81
2022/12/19 11:42:57;;;;;;;;;;;;;;;19.98;34.05;103477.81;102207;1320;73703;-80
2022/12/19 11:45:39;;;;;;;;;;;;;;;20.02;33.90;103482.52;102109;1317;74628;-81
2022/12/19 11:48:15;;;;;;;;;;;;;;;20.06;33.93;103485.84;102240;1328;60769;-81
2022/12/19 11:50:51;;;;;;;;;;;;;;;20.09;33.80;103484.48;102318;1318;61534;-81
2022/12/19 11:53:18;;;;;;;;;;;;;;;20.13;33.85;103478.14;102216;1317;72719;-82
2022/12/19 11:55:51;;;;;;;;;;;;;;;20.15;33.64;103479.36;102257;1317;75519;-82
2022/12/19 11:58:17;;;;;;;;;;;;;;;20.12;33.50;103478.89;102326;1318;61221;-82
2022/12/19 12:01:03;;;;;;;;;;;;;;;20.05;33.49;103481.02;102414;1316;61394;-81
2022/12/19 12:03:32;;;;;;;;;;;;;;;19.96;33.41;103475.70;102480;1318;73522;-82
2022/12/19 12:05:57;;;;;;;;;;;;;;;19.87;33.29;103478.59;102484;1319;74449;-82
2022/12/19 12:08:29;;;;;;;;;;;;;;;19.75;33.18;103480.11;102354;1319;61410;-81
2022/12/19 12:10:58;;;;;;;;;;;;;;;19.59;33.30;103475.98;102436;1323;61065;-82
2022/12/19 12:13:32;;;;;;;;;;;;;;;19.53;33.37;103482.56;102521;1333;72798;-82
2022/12/19 12:16:11;;;;;;;;;;;;;;;19.48;33.26;103474.98;102503;1326;75456;-81
2022/12/19 12:18:56;;;;;;;;;;;;;;;19.45;33.33;103477.38;102469;1318;60897;-82
2022/12/19 12:21:22;;;;;;;;;;;;;;;19.42;33.40;103479.22;102256;1327;60153;-81
2022/12/19 12:23:56;;;;;;;;;;;;;;;19.41;33.30;103480.88;102300;1335;60250;-82
2022/12/19 12:26:24;;;;;;;;;;;;;;;19.40;33.25;103481.79;102380;1317;74564;-82
2022/12/19 12:29:02;;;;;;;;;;;;;;;19.38;33.04;103476.65;102341;1320;62496;-81
2022/12/19 12:31:31;;;;;;;;;;;;;;;19.35;32.85;103485.63;102865;1314;61276;-81
2022/12/19 12:34:13;;;;;;;;;;;;;;;19.33;33.04;103481.39;102280;1316;72432;-81
2022/12/19 12:36:38;;;;;;;;;;;;;;;19.33;32.87;103472.48;102248;1309;74403;-81